createdAt,value
2024-02-23T00:00:12.640Z,98934.19
2024-02-23T00:03:15.141Z,98931.28
2024-02-23T00:06:17.448Z,98931.56
2024-02-23T00:09:20.100Z,98926.47
2024-02-23T00:12:22.452Z,98927.81
2024-02-23T00:15:26.515Z,98921.34
2024-02-23T00:18:29.206Z,98926.03
2024-02-23T00:21:31.813Z,98935.00
2024-02-23T00:24:34.103Z,98930.91
2024-02-23T00:27:36.778Z,98935.28
2024-02-23T00:30:39.022Z,98938.75
2024-02-23T00:33:43.482Z,98935.59
2024-02-23T00:36:46.139Z,98938.62
2024-02-23T00:39:49.212Z,98932.56
2024-02-23T00:42:51.502Z,98925.41
2024-02-23T00:45:54.139Z,98937.69
2024-02-23T00:48:56.644Z,98927.03
2024-02-23T00:51:59.308Z,98924.03
2024-02-23T00:55:01.730Z,98929.28
2024-02-23T00:58:04.926Z,98930.66
2024-02-23T01:01:07.511Z,98918.09
2024-02-23T01:04:09.953Z,98930.81
2024-02-23T01:07:12.103Z,98928.31
2024-02-23T01:10:14.668Z,98916.44
2024-02-23T01:13:17.095Z,98923.75
2024-02-23T01:16:19.723Z,98911.47
2024-02-23T01:19:21.954Z,98907.41
2024-02-23T01:22:24.805Z,98907.69
2024-02-23T01:25:27.451Z,98905.47
2024-02-23T01:28:29.914Z,98907.50
2024-02-23T01:31:32.092Z,98903.63
2024-02-23T01:34:35.154Z,98902.75
2024-02-23T01:37:37.963Z,98895.44
2024-02-23T01:40:40.883Z,98897.63
2024-02-23T01:43:43.272Z,98896.37
2024-02-23T01:46:46.478Z,98889.72
2024-02-23T01:49:49.202Z,98889.97
2024-02-23T01:52:53.496Z,98893.72
2024-02-23T01:55:56.364Z,98886.66
2024-02-23T01:59:00.274Z,98887.47
2024-02-23T02:02:04.107Z,98889.13
2024-02-23T02:05:08.909Z,98884.44
2024-02-23T02:08:12.233Z,98879.09
2024-02-23T02:11:14.865Z,98887.06
2024-02-23T02:14:18.251Z,98877.81
2024-02-23T02:17:20.986Z,98875.91
2024-02-23T02:20:26.996Z,98874.75
2024-02-23T02:23:29.606Z,98868.84
2024-02-23T02:26:32.488Z,98866.06
2024-02-23T02:29:36.757Z,98867.72
2024-02-23T02:32:39.209Z,98868.69
2024-02-23T02:35:41.848Z,98872.97
2024-02-23T02:38:44.129Z,98879.16
2024-02-23T02:41:46.637Z,98870.34
2024-02-23T02:44:48.863Z,98869.25
2024-02-23T02:47:51.541Z,98874.50
2024-02-23T02:50:54.607Z,98873.66
2024-02-23T02:53:57.481Z,98873.56
2024-02-23T02:56:59.696Z,98879.87
2024-02-23T03:00:02.329Z,98871.00
2024-02-23T03:03:04.608Z,98876.09
2024-02-23T03:06:08.595Z,98880.63
2024-02-23T03:09:10.888Z,98874.28
2024-02-23T03:12:13.498Z,98880.87
2024-02-23T03:15:16.141Z,98883.63
2024-02-23T03:18:18.833Z,98890.19
2024-02-23T03:21:21.369Z,98882.22
2024-02-23T03:24:23.864Z,98881.22
2024-02-23T03:27:30.481Z,98887.72
2024-02-23T03:30:36.812Z,98888.09
2024-02-23T03:33:40.297Z,98889.44
2024-02-23T03:36:42.955Z,98885.88
2024-02-23T03:39:45.170Z,98889.69
2024-02-23T03:42:47.675Z,98894.88
2024-02-23T03:45:51.673Z,98886.66
2024-02-23T03:48:54.592Z,98888.87
2024-02-23T03:51:56.826Z,98889.06
2024-02-23T03:54:59.306Z,98894.00
2024-02-23T03:58:01.539Z,98889.59
2024-02-23T04:01:04.261Z,98883.22
2024-02-23T04:04:07.434Z,98888.97
2024-02-23T04:07:09.629Z,98886.50
2024-02-23T04:10:17.094Z,98883.56
2024-02-23T04:13:19.400Z,98890.59
2024-02-23T04:16:25.861Z,98887.06
2024-02-23T04:19:28.120Z,98894.53
2024-02-23T04:22:30.695Z,98879.50
2024-02-23T04:25:32.957Z,98889.16
2024-02-23T04:28:38.825Z,98888.59
2024-02-23T04:31:41.131Z,98886.69
2024-02-23T04:34:43.586Z,98890.50
2024-02-23T04:37:46.405Z,98887.87
2024-02-23T04:40:48.934Z,98889.69
2024-02-23T04:43:51.709Z,98903.75
2024-02-23T04:46:54.341Z,98902.66
2024-02-23T04:49:56.640Z,98896.19
2024-02-23T04:52:59.239Z,98891.97
2024-02-23T04:56:01.473Z,98895.56
2024-02-23T04:59:04.782Z,98897.41
2024-02-23T05:02:07.148Z,98896.53
2024-02-23T05:05:10.257Z,98900.84
2024-02-23T05:08:12.701Z,98902.09
2024-02-23T05:11:17.590Z,98897.69
2024-02-23T05:14:20.035Z,98903.50
2024-02-23T05:17:22.772Z,98915.31
2024-02-23T05:20:25.072Z,98929.78
2024-02-23T05:23:27.583Z,98930.75
2024-02-23T05:26:29.947Z,98935.00
2024-02-23T05:29:33.010Z,98935.28
2024-02-23T05:32:35.439Z,98945.69
2024-02-23T05:35:38.109Z,98945.69
2024-02-23T05:38:40.413Z,98955.91
2024-02-23T05:41:43.330Z,98959.19
2024-02-23T05:44:46.166Z,98968.16
2024-02-23T05:47:49.063Z,98969.34
2024-02-23T05:50:51.827Z,98980.53
2024-02-23T05:53:54.317Z,98989.53
2024-02-23T05:56:57.855Z,98994.37
2024-02-23T06:00:00.479Z,99003.06
2024-02-23T06:03:02.764Z,99007.47
2024-02-23T06:06:09.331Z,99017.94
2024-02-23T06:09:11.654Z,99010.50
2024-02-23T06:12:14.270Z,99020.25
2024-02-23T06:15:16.539Z,99014.19
2024-02-23T06:18:19.073Z,99026.31
2024-02-23T06:21:22.496Z,99027.63
2024-02-23T06:24:24.958Z,99033.00
2024-02-23T06:27:28.744Z,99029.81
2024-02-23T06:30:31.271Z,99043.94
2024-02-23T06:33:33.580Z,99035.81
2024-02-23T06:36:36.830Z,99041.41
2024-02-23T06:39:39.079Z,99043.31
2024-02-23T06:42:41.536Z,99050.91
2024-02-23T06:45:45.322Z,99043.56
2024-02-23T06:48:48.017Z,99042.84
2024-02-23T06:51:50.235Z,99049.13
2024-02-23T06:54:54.047Z,99043.16
2024-02-23T06:57:56.443Z,99049.63
2024-02-23T07:00:58.964Z,99048.75
2024-02-23T07:04:01.205Z,99059.03
2024-02-23T07:07:08.401Z,99049.00
2024-02-23T07:10:12.316Z,99060.06
2024-02-23T07:13:14.986Z,99058.22
2024-02-23T07:16:17.356Z,99057.59
2024-02-23T07:19:21.350Z,99057.47
2024-02-23T07:22:23.625Z,99062.19
2024-02-23T07:25:27.032Z,99063.53
2024-02-23T07:28:29.533Z,99072.34
2024-02-23T07:31:34.857Z,99072.47
2024-02-23T07:34:38.863Z,99075.22
2024-02-23T07:37:41.451Z,99069.59
2024-02-23T07:40:43.584Z,99072.22
2024-02-23T07:43:46.222Z,99078.28
2024-02-23T07:46:48.460Z,99080.91
2024-02-23T07:49:53.152Z,99084.59
2024-02-23T07:52:56.131Z,99082.56
2024-02-23T07:56:03.125Z,99091.28
2024-02-23T07:59:05.584Z,99086.63
2024-02-23T08:02:08.577Z,99085.78
2024-02-23T08:05:11.653Z,99090.78
2024-02-23T08:08:14.155Z,99082.56
2024-02-23T08:11:16.840Z,99095.31
2024-02-23T08:14:19.211Z,99098.38
2024-02-23T08:17:22.108Z,99095.31
2024-02-23T08:20:24.617Z,99103.41
2024-02-23T08:23:27.781Z,99101.25
2024-02-23T08:26:30.217Z,99101.31
2024-02-23T08:29:39.007Z,99110.06
2024-02-23T08:32:42.251Z,99113.84
2024-02-23T08:35:44.825Z,99111.47
2024-02-23T08:38:47.085Z,99111.88
2024-02-23T08:41:53.905Z,99118.50
2024-02-23T08:44:56.342Z,99126.16
2024-02-23T08:47:59.219Z,99127.72
2024-02-23T08:51:01.434Z,99127.44
2024-02-23T08:54:06.559Z,99126.16
2024-02-23T08:57:08.799Z,99129.12
2024-02-23T09:00:14.704Z,99132.34
2024-02-23T09:03:18.344Z,99138.19
2024-02-23T09:06:21.839Z,99144.97
2024-02-23T09:09:25.248Z,99135.47
2024-02-23T09:12:27.828Z,99142.94
2024-02-23T09:15:30.061Z,99148.97
2024-02-23T09:18:32.571Z,99146.50
2024-02-23T09:21:34.871Z,99153.38
2024-02-23T09:24:41.539Z,99150.31
2024-02-23T09:27:48.948Z,99150.09
2024-02-23T09:30:51.470Z,99161.13
2024-02-23T09:33:53.770Z,99146.53
2024-02-23T09:36:56.919Z,99149.16
2024-02-23T09:39:59.320Z,99155.84
2024-02-23T09:43:01.834Z,99159.50
2024-02-23T09:46:04.504Z,99147.53
2024-02-23T09:49:09.031Z,99152.06
2024-02-23T09:52:12.065Z,99156.66
2024-02-23T09:55:14.933Z,99160.31
2024-02-23T09:58:18.376Z,99161.63
2024-02-23T10:01:34.517Z,99162.13
2024-02-23T10:04:37.620Z,99161.03
2024-02-23T10:07:40.356Z,99162.81
2024-02-23T10:10:43.063Z,99160.91
2024-02-23T10:13:45.443Z,99164.84
2024-02-23T10:16:48.488Z,99168.19
2024-02-23T10:19:50.945Z,99168.69
2024-02-23T10:22:55.108Z,99174.50
2024-02-23T10:25:57.736Z,99160.47
2024-02-23T10:29:00.435Z,99169.25
2024-02-23T10:32:02.814Z,99178.44
2024-02-23T10:35:15.308Z,99176.00
2024-02-23T10:38:19.791Z,99173.62
2024-02-23T10:41:22.651Z,99173.50
2024-02-23T10:44:31.877Z,99171.03
2024-02-23T10:47:38.778Z,99163.72
2024-02-23T10:50:44.771Z,99169.31
2024-02-23T10:53:51.394Z,99172.63
2024-02-23T10:56:54.477Z,99170.00
2024-02-23T10:59:57.030Z,99170.16
2024-02-23T11:02:59.877Z,99174.44
2024-02-23T11:06:02.673Z,99172.78
2024-02-23T11:09:11.787Z,99178.47
2024-02-23T11:12:23.780Z,99167.19
2024-02-23T11:15:30.351Z,99171.66
2024-02-23T11:18:35.239Z,99174.00
2024-02-23T11:21:39.956Z,99175.41
2024-02-23T11:24:50.234Z,99170.13
2024-02-23T11:27:53.324Z,99182.19
2024-02-23T11:30:56.173Z,99169.31
2024-02-23T11:33:59.803Z,99177.91
2024-02-23T11:37:11.994Z,99174.56
2024-02-23T11:40:14.694Z,99170.03
2024-02-23T11:43:17.897Z,99173.34
2024-02-23T11:46:21.010Z,99157.00
2024-02-23T11:49:29.420Z,99166.12
2024-02-23T11:52:31.820Z,99166.97
2024-02-23T11:55:34.649Z,99172.09
2024-02-23T11:58:37.095Z,99161.31
2024-02-23T12:01:39.771Z,99156.47
2024-02-23T12:04:42.473Z,99149.16
2024-02-23T12:07:47.617Z,99154.41
2024-02-23T12:10:50.960Z,99149.53
2024-02-23T12:13:53.532Z,99148.88
2024-02-23T12:16:58.631Z,99147.75
2024-02-23T12:20:01.833Z,99145.34
2024-02-23T12:23:04.642Z,99140.78
2024-02-23T12:26:07.005Z,99144.06
2024-02-23T12:29:11.225Z,99136.44
2024-02-23T12:32:13.504Z,99140.94
2024-02-23T12:35:17.326Z,99140.31
2024-02-23T12:38:19.730Z,99148.91
2024-02-23T12:41:22.406Z,99153.56
2024-02-23T12:44:25.522Z,99156.22
2024-02-23T12:47:28.134Z,99154.28
2024-02-23T12:50:33.782Z,99153.59
2024-02-23T12:53:41.247Z,99149.19
2024-02-23T12:56:43.807Z,99148.19
2024-02-23T12:59:46.394Z,99153.69
2024-02-23T13:02:49.016Z,99160.50
2024-02-23T13:05:52.114Z,99154.53
2024-02-23T13:08:54.672Z,99148.44
2024-02-23T13:11:58.491Z,99151.62
2024-02-23T13:15:00.823Z,99156.16
2024-02-23T13:18:04.127Z,99151.19
2024-02-23T13:21:06.458Z,99154.66
2024-02-23T13:24:09.002Z,99154.66
2024-02-23T13:27:11.709Z,99156.16
2024-02-23T13:30:14.914Z,99159.72
2024-02-23T13:33:17.599Z,99152.97
2024-02-23T13:36:20.376Z,99152.53
2024-02-23T13:39:22.590Z,99149.09
2024-02-23T13:42:25.186Z,99149.91
2024-02-23T13:45:27.932Z,99148.28
2024-02-23T13:48:30.601Z,99137.88
2024-02-23T13:51:33.766Z,99139.56
2024-02-23T13:54:36.368Z,99135.13
2024-02-23T13:57:38.604Z,99117.28
2024-02-23T14:00:41.306Z,99119.75
2024-02-23T14:03:43.974Z,99125.56
2024-02-23T14:06:46.206Z,99122.53
2024-02-23T14:09:48.766Z,99123.25
2024-02-23T14:12:51.837Z,99120.62
2024-02-23T14:15:55.060Z,99118.56
2024-02-23T14:18:57.277Z,99118.56
2024-02-23T14:21:59.959Z,99120.91
2024-02-23T14:25:02.345Z,99127.53
2024-02-23T14:28:05.036Z,99130.81
2024-02-23T14:31:07.217Z,99130.69
2024-02-23T14:34:10.084Z,99119.38
2024-02-23T14:37:12.662Z,99124.22
2024-02-23T14:40:16.042Z,99124.06
2024-02-23T14:43:19.136Z,99115.22
2024-02-23T14:46:21.682Z,99114.09
2024-02-23T14:49:23.929Z,99113.53
2024-02-23T14:52:26.653Z,99111.88
2024-02-23T14:55:28.830Z,99111.88
2024-02-23T14:58:31.396Z,99116.00
2024-02-23T15:01:33.723Z,99111.31
2024-02-23T15:04:36.159Z,99112.13
2024-02-23T15:07:38.608Z,99105.50
2024-02-23T15:10:41.143Z,99108.97
2024-02-23T15:13:43.282Z,99105.50
2024-02-23T15:16:46.262Z,99102.75
2024-02-23T15:19:48.604Z,99098.91
2024-02-23T15:22:51.245Z,99094.03
2024-02-23T15:26:03.948Z,99096.94
2024-02-23T15:29:09.994Z,99098.19
2024-02-23T15:32:12.668Z,99100.38
2024-02-23T15:35:15.290Z,99099.16
2024-02-23T15:38:17.809Z,99092.78
2024-02-23T15:41:20.241Z,99096.38
2024-02-23T15:44:22.534Z,99106.88
2024-02-23T15:47:25.153Z,99099.72
2024-02-23T15:50:43.448Z,99109.50
2024-02-23T15:53:51.764Z,99099.72
2024-02-23T15:56:54.123Z,99103.28
2024-02-23T16:00:03.166Z,99099.13
2024-02-23T16:03:07.168Z,99103.28
2024-02-23T16:06:09.869Z,99098.97
2024-02-23T16:09:16.102Z,99099.94
2024-02-23T16:12:18.979Z,99098.84
2024-02-23T16:15:21.222Z,99088.03
2024-02-23T16:18:23.796Z,99081.78
2024-02-23T16:21:27.363Z,99085.78
2024-02-23T16:24:30.278Z,99089.19
2024-02-23T16:27:32.505Z,99085.75
2024-02-23T16:30:35.135Z,99088.34
2024-02-23T16:33:37.342Z,99088.75
2024-02-23T16:36:41.696Z,99093.41
2024-02-23T16:39:44.422Z,99092.84
2024-02-23T16:42:46.971Z,99100.28
2024-02-23T16:45:49.226Z,99086.31
2024-02-23T16:48:51.761Z,99091.06
2024-02-23T16:51:54.300Z,99088.44
2024-02-23T16:54:56.895Z,99104.56
2024-02-23T16:57:59.614Z,99097.53
2024-02-23T17:01:02.676Z,99100.41
2024-02-23T17:04:05.439Z,99104.94
2024-02-23T17:07:08.091Z,99108.66
2024-02-23T17:10:10.418Z,99104.00
2024-02-23T17:13:12.872Z,99098.75
2024-02-23T17:16:15.126Z,99104.84
2024-02-23T17:19:18.173Z,99105.78
2024-02-23T17:22:25.841Z,99103.03
2024-02-23T17:25:28.359Z,99105.28
2024-02-23T17:28:31.486Z,99106.69
2024-02-23T17:31:34.102Z,99116.91
2024-02-23T17:34:36.387Z,99107.19
2024-02-23T17:37:39.076Z,99104.84
2024-02-23T17:40:41.659Z,99110.53
2024-02-23T17:43:44.248Z,99109.16
2024-02-23T17:46:49.076Z,99105.19
2024-02-23T17:49:52.157Z,99097.72
2024-02-23T17:52:54.351Z,99097.34
2024-02-23T17:55:58.889Z,99088.50
2024-02-23T17:59:01.325Z,99082.38
2024-02-23T18:02:04.205Z,99083.81
2024-02-23T18:05:08.812Z,99076.94
2024-02-23T18:08:11.337Z,99079.16
2024-02-23T18:11:14.057Z,99068.66
2024-02-23T18:14:16.617Z,99062.03
2024-02-23T18:17:19.169Z,99054.28
2024-02-23T18:20:21.601Z,99052.78
2024-02-23T18:23:24.155Z,99053.72
2024-02-23T18:26:26.388Z,99048.63
2024-02-23T18:29:29.049Z,99046.16
2024-02-23T18:32:32.449Z,99047.38
2024-02-23T18:35:35.162Z,99041.69
2024-02-23T18:38:37.772Z,99039.50
2024-02-23T18:41:40.588Z,99037.56
2024-02-23T18:44:43.657Z,99036.44
2024-02-23T18:47:46.428Z,99024.84
2024-02-23T18:50:49.559Z,99027.91
2024-02-23T18:53:52.253Z,99022.66
2024-02-23T18:56:54.526Z,99033.81
2024-02-23T18:59:57.128Z,99032.72
2024-02-23T19:02:59.456Z,99028.72
2024-02-23T19:06:02.100Z,99028.31
2024-02-23T19:09:06.122Z,99026.37
2024-02-23T19:12:10.856Z,99026.37
2024-02-23T19:15:13.197Z,99024.84
2024-02-23T19:18:17.070Z,99029.00
2024-02-23T19:21:20.385Z,99026.13
2024-02-23T19:24:26.049Z,99022.94
2024-02-23T19:27:28.311Z,99012.69
2024-02-23T19:30:30.846Z,99006.75
2024-02-23T19:33:33.271Z,99015.31
2024-02-23T19:36:35.833Z,99018.03
2024-02-23T19:39:38.128Z,99013.06
2024-02-23T19:42:40.612Z,99015.94
2024-02-23T19:45:43.143Z,99019.41
2024-02-23T19:48:46.419Z,99011.53
2024-02-23T19:51:48.869Z,99011.09
2024-02-23T19:54:51.943Z,99006.09
2024-02-23T19:57:55.752Z,99008.63
2024-02-23T20:00:58.309Z,99012.50
2024-02-23T20:04:01.399Z,99017.22
2024-02-23T20:07:07.521Z,99009.31
2024-02-23T20:10:10.759Z,99011.41
2024-02-23T20:13:13.642Z,99015.56
2024-02-23T20:16:16.297Z,99008.81
2024-02-23T20:19:18.713Z,99005.22
2024-02-23T20:22:22.424Z,99008.81
2024-02-23T20:25:24.681Z,99007.56
2024-02-23T20:28:29.329Z,99012.97
2024-02-23T20:31:32.198Z,99008.28
2024-02-23T20:34:34.833Z,99004.28
2024-02-23T20:37:39.084Z,99011.44
2024-02-23T20:40:41.672Z,98997.06
2024-02-23T20:43:43.884Z,98998.84
2024-02-23T20:46:46.392Z,99007.53
2024-02-23T20:49:49.905Z,99005.19
2024-02-23T20:52:52.470Z,99008.25
2024-02-23T20:55:54.729Z,99015.56
2024-02-23T20:58:57.962Z,99011.97
2024-02-23T21:02:00.206Z,99017.37
2024-02-23T21:05:02.947Z,99018.22
2024-02-23T21:08:07.639Z,99008.25
2024-02-23T21:11:10.726Z,99006.47
2024-02-23T21:14:15.819Z,99003.37
2024-02-23T21:17:18.504Z,99000.59
2024-02-23T21:20:20.905Z,99012.22
2024-02-23T21:23:23.877Z,99010.41
2024-02-23T21:26:29.293Z,99007.53
2024-02-23T21:29:31.855Z,99006.81
2024-02-23T21:32:34.227Z,99007.91
2024-02-23T21:35:37.498Z,99007.09
2024-02-23T21:38:39.904Z,99013.56
2024-02-23T21:41:42.552Z,99012.47
2024-02-23T21:44:45.223Z,99019.91
2024-02-23T21:47:47.910Z,99011.13
2024-02-23T21:50:50.303Z,99012.34
2024-02-23T21:53:53.126Z,99007.25
2024-02-23T21:56:55.438Z,99007.50
2024-02-23T21:59:58.454Z,99007.78
2024-02-23T22:03:03.902Z,99005.25
2024-02-23T22:06:07.771Z,99006.94
2024-02-23T22:09:10.265Z,99009.09
2024-02-23T22:12:12.924Z,98997.88
2024-02-23T22:15:15.560Z,99003.47
2024-02-23T22:18:18.485Z,99015.91
2024-02-23T22:21:21.595Z,99004.84
2024-02-23T22:24:24.475Z,99009.94
2024-02-23T22:27:29.999Z,99013.94
2024-02-23T22:30:32.484Z,99001.56
2024-02-23T22:33:34.874Z,99007.63
2024-02-23T22:36:37.762Z,99017.44
2024-02-23T22:39:41.562Z,99013.69
2024-02-23T22:42:44.177Z,99015.13
2024-02-23T22:45:46.512Z,99006.28
2024-02-23T22:48:49.175Z,99003.53
2024-02-23T22:51:51.519Z,99012.91
2024-02-23T22:54:54.909Z,99013.16
2024-02-23T22:57:57.162Z,99014.12
2024-02-23T23:00:59.804Z,99009.78
2024-02-23T23:04:02.081Z,99015.19
2024-02-23T23:07:05.351Z,99006.06
2024-02-23T23:10:08.417Z,99007.16
2024-02-23T23:13:11.103Z,99012.63
2024-02-23T23:16:14.353Z,99011.41
2024-02-23T23:19:17.677Z,99013.31
2024-02-23T23:22:20.106Z,99006.34
2024-02-23T23:25:22.609Z,98992.91
2024-02-23T23:28:24.851Z,98998.66
2024-02-23T23:31:29.087Z,99002.78
2024-02-23T23:34:31.810Z,98999.19
2024-02-23T23:37:34.395Z,99006.59
2024-02-23T23:40:36.794Z,99009.81
2024-02-23T23:43:40.461Z,99008.97
2024-02-23T23:46:43.236Z,99008.44
2024-02-23T23:49:46.019Z,99013.00
2024-02-23T23:52:48.305Z,99008.03
2024-02-23T23:55:50.925Z,99014.22
2024-02-23T23:58:53.228Z,99013.38
